sensor_id;sensor_type;location;lat;lon;timestamp;temperature;humidity
73137;DHT22;67767;45.636;11.756;2023-06-10T00:01:52;22.10;82.50
73137;DHT22;67767;45.636;11.756;2023-06-10T00:04:20;22.10;82.50
73137;DHT22;67767;45.636;11.756;2023-06-10T00:06:47;22.20;82.20
73137;DHT22;67767;45.636;11.756;2023-06-10T00:09:15;22.20;82.00
73137;DHT22;67767;45.636;11.756;2023-06-10T00:11:41;22.40;82.00
73137;DHT22;67767;45.636;11.756;2023-06-10T00:14:07;22.40;81.50
73137;DHT22;67767;45.636;11.756;2023-06-10T00:16:33;22.40;81.60
73137;DHT22;67767;45.636;11.756;2023-06-10T00:19:00;22.40;81.40
73137;DHT22;67767;45.636;11.756;2023-06-10T00:21:29;22.30;81.50
73137;DHT22;67767;45.636;11.756;2023-06-10T00:23:56;22.30;81.90
73137;DHT22;67767;45.636;11.756;2023-06-10T00:26:24;22.30;82.00
73137;DHT22;67767;45.636;11.756;2023-06-10T00:28:51;22.20;82.20
73137;DHT22;67767;45.636;11.756;2023-06-10T00:31:17;22.30;82.20
73137;DHT22;67767;45.636;11.756;2023-06-10T00:33:43;22.20;82.30
73137;DHT22;67767;45.636;11.756;2023-06-10T00:36:09;22.30;82.00
73137;DHT22;67767;45.636;11.756;2023-06-10T00:38:34;22.40;82.00
73137;DHT22;67767;45.636;11.756;2023-06-10T00:41:00;22.30;82.00
73137;DHT22;67767;45.636;11.756;2023-06-10T00:43:26;22.40;82.10
73137;DHT22;67767;45.636;11.756;2023-06-10T00:45:52;22.30;82.40
73137;DHT22;67767;45.636;11.756;2023-06-10T00:48:18;22.30;82.40
73137;DHT22;67767;45.636;11.756;2023-06-10T00:50:45;22.40;82.60
73137;DHT22;67767;45.636;11.756;2023-06-10T00:53:12;22.30;83.20
73137;DHT22;67767;45.636;11.756;2023-06-10T00:55:38;22.20;83.10
73137;DHT22;67767;45.636;11.756;2023-06-10T00:58:04;22.10;83.40
73137;DHT22;67767;45.636;11.756;2023-06-10T01:00:30;22.00;83.90
73137;DHT22;67767;45.636;11.756;2023-06-10T01:02:56;22.10;83.90
73137;DHT22;67767;45.636;11.756;2023-06-10T01:05:23;22.10;83.80
73137;DHT22;67767;45.636;11.756;2023-06-10T01:10:53;22.00;83.90
73137;DHT22;67767;45.636;11.756;2023-06-10T01:13:22;22.00;84.10
73137;DHT22;67767;45.636;11.756;2023-06-10T01:15:50;21.80;84.50
73137;DHT22;67767;45.636;11.756;2023-06-10T01:18:17;21.80;84.90
73137;DHT22;67767;45.636;11.756;2023-06-10T01:20:43;21.80;84.90
73137;DHT22;67767;45.636;11.756;2023-06-10T01:23:10;21.40;85.90
73137;DHT22;67767;45.636;11.756;2023-06-10T01:25:38;21.40;86.30
73137;DHT22;67767;45.636;11.756;2023-06-10T01:31:16;21.20;86.70
73137;DHT22;67767;45.636;11.756;2023-06-10T01:33:46;21.40;86.50
73137;DHT22;67767;45.636;11.756;2023-06-10T01:36:13;21.30;86.10
73137;DHT22;67767;45.636;11.756;2023-06-10T01:38:43;20.90;87.60
73137;DHT22;67767;45.636;11.756;2023-06-10T01:41:13;20.90;88.20
73137;DHT22;67767;45.636;11.756;2023-06-10T01:43:39;20.70;90.50
73137;DHT22;67767;45.636;11.756;2023-06-10T01:46:06;20.80;90.60
73137;DHT22;67767;45.636;11.756;2023-06-10T01:48:32;20.90;90.40
73137;DHT22;67767;45.636;11.756;2023-06-10T01:50:58;21.00;88.30
73137;DHT22;67767;45.636;11.756;2023-06-10T01:53:24;20.90;87.90
73137;DHT22;67767;45.636;11.756;2023-06-10T01:55:50;21.00;87.80
73137;DHT22;67767;45.636;11.756;2023-06-10T01:58:16;20.90;88.40
73137;DHT22;67767;45.636;11.756;2023-06-10T02:00:41;20.90;89.60
73137;DHT22;67767;45.636;11.756;2023-06-10T02:03:07;20.80;90.10
73137;DHT22;67767;45.636;11.756;2023-06-10T02:05:33;20.50;91.00
73137;DHT22;67767;45.636;11.756;2023-06-10T02:07:58;20.30;91.60
73137;DHT22;67767;45.636;11.756;2023-06-10T02:10:24;20.40;91.60
73137;DHT22;67767;45.636;11.756;2023-06-10T02:12:50;20.40;91.70
73137;DHT22;67767;45.636;11.756;2023-06-10T02:15:16;20.40;91.10
73137;DHT22;67767;45.636;11.756;2023-06-10T02:17:41;20.50;90.70
73137;DHT22;67767;45.636;11.756;2023-06-10T02:20:07;20.30;91.20
73137;DHT22;67767;45.636;11.756;2023-06-10T02:22:36;20.30;91.30
73137;DHT22;67767;45.636;11.756;2023-06-10T02:25:02;20.20;91.40
73137;DHT22;67767;45.636;11.756;2023-06-10T02:27:29;20.30;90.90
73137;DHT22;67767;45.636;11.756;2023-06-10T02:29:56;20.20;91.60
73137;DHT22;67767;45.636;11.756;2023-06-10T02:32:22;20.20;91.40
73137;DHT22;67767;45.636;11.756;2023-06-10T02:34:48;20.30;91.40
73137;DHT22;67767;45.636;11.756;2023-06-10T02:37:16;20.40;90.60
73137;DHT22;67767;45.636;11.756;2023-06-10T02:39:42;20.50;90.20
73137;DHT22;67767;45.636;11.756;2023-06-10T02:42:08;20.40;90.00
73137;DHT22;67767;45.636;11.756;2023-06-10T02:44:34;20.50;90.30
73137;DHT22;67767;45.636;11.756;2023-06-10T02:46:59;20.40;90.10
73137;DHT22;67767;45.636;11.756;2023-06-10T02:49:26;20.30;90.20
73137;DHT22;67767;45.636;11.756;2023-06-10T02:51:54;20.40;90.20
73137;DHT22;67767;45.636;11.756;2023-06-10T02:54:20;20.50;90.20
73137;DHT22;67767;45.636;11.756;2023-06-10T02:56:46;20.60;89.60
73137;DHT22;67767;45.636;11.756;2023-06-10T02:59:13;20.60;89.10
73137;DHT22;67767;45.636;11.756;2023-06-10T03:01:39;20.70;88.90
73137;DHT22;67767;45.636;11.756;2023-06-10T03:04:06;20.60;88.60
73137;DHT22;67767;45.636;11.756;2023-06-10T03:06:32;20.80;88.70
73137;DHT22;67767;45.636;11.756;2023-06-10T03:09:02;20.90;87.10
73137;DHT22;67767;45.636;11.756;2023-06-10T03:11:29;20.90;86.70
73137;DHT22;67767;45.636;11.756;2023-06-10T03:13:56;20.80;87.80
73137;DHT22;67767;45.636;11.756;2023-06-10T03:16:21;20.90;86.80
73137;DHT22;67767;45.636;11.756;2023-06-10T03:18:48;20.70;88.60
73137;DHT22;67767;45.636;11.756;2023-06-10T03:21:14;20.80;88.50
73137;DHT22;67767;45.636;11.756;2023-06-10T03:23:39;20.70;88.30
73137;DHT22;67767;45.636;11.756;2023-06-10T03:26:05;20.80;87.90
73137;DHT22;67767;45.636;11.756;2023-06-10T03:28:31;20.90;86.50
73137;DHT22;67767;45.636;11.756;2023-06-10T03:30:57;20.90;87.60
73137;DHT22;67767;45.636;11.756;2023-06-10T03:33:23;21.00;86.00
73137;DHT22;67767;45.636;11.756;2023-06-10T03:35:49;21.00;86.50
73137;DHT22;67767;45.636;11.756;2023-06-10T03:38:15;20.90;86.70
73137;DHT22;67767;45.636;11.756;2023-06-10T03:40:40;20.90;86.70
73137;DHT22;67767;45.636;11.756;2023-06-10T03:43:06;20.90;86.60
73137;DHT22;67767;45.636;11.756;2023-06-10T03:45:32;20.90;86.90
73137;DHT22;67767;45.636;11.756;2023-06-10T03:47:58;20.90;87.00
73137;DHT22;67767;45.636;11.756;2023-06-10T03:50:23;20.90;87.30
73137;DHT22;67767;45.636;11.756;2023-06-10T03:52:50;20.80;88.90
73137;DHT22;67767;45.636;11.756;2023-06-10T03:55:16;20.80;88.80
73137;DHT22;67767;45.636;11.756;2023-06-10T03:57:43;20.80;88.90
73137;DHT22;67767;45.636;11.756;2023-06-10T04:00:09;20.70;89.30
73137;DHT22;67767;45.636;11.756;2023-06-10T04:02:38;20.90;89.20
73137;DHT22;67767;45.636;11.756;2023-06-10T04:05:11;20.90;87.80
73137;DHT22;67767;45.636;11.756;2023-06-10T04:07:37;20.90;87.70
73137;DHT22;67767;45.636;11.756;2023-06-10T04:10:06;21.00;87.50
73137;DHT22;67767;45.636;11.756;2023-06-10T04:12:32;21.00;87.60
73137;DHT22;67767;45.636;11.756;2023-06-10T04:14:58;21.10;87.30
73137;DHT22;67767;45.636;11.756;2023-06-10T04:17:24;21.10;87.30
73137;DHT22;67767;45.636;11.756;2023-06-10T04:19:49;21.20;86.80
73137;DHT22;67767;45.636;11.756;2023-06-10T04:22:16;21.20;86.20
73137;DHT22;67767;45.636;11.756;2023-06-10T04:24:43;21.40;86.20
73137;DHT22;67767;45.636;11.756;2023-06-10T04:27:09;21.40;86.20
73137;DHT22;67767;45.636;11.756;2023-06-10T04:29:35;21.30;86.20
73137;DHT22;67767;45.636;11.756;2023-06-10T04:32:01;21.30;86.20
73137;DHT22;67767;45.636;11.756;2023-06-10T04:34:27;21.30;85.80
73137;DHT22;67767;45.636;11.756;2023-06-10T04:36:53;21.30;85.90
73137;DHT22;67767;45.636;11.756;2023-06-10T04:39:19;21.40;85.70
73137;DHT22;67767;45.636;11.756;2023-06-10T04:41:45;21.50;85.60
73137;DHT22;67767;45.636;11.756;2023-06-10T04:44:12;21.60;85.20
73137;DHT22;67767;45.636;11.756;2023-06-10T04:46:37;21.60;85.10
73137;DHT22;67767;45.636;11.756;2023-06-10T04:49:03;21.60;85.30
73137;DHT22;67767;45.636;11.756;2023-06-10T04:51:30;21.60;85.40
73137;DHT22;67767;45.636;11.756;2023-06-10T04:53:57;21.60;85.80
73137;DHT22;67767;45.636;11.756;2023-06-10T04:56:23;21.60;85.80
73137;DHT22;67767;45.636;11.756;2023-06-10T04:58:49;21.70;85.80
73137;DHT22;67767;45.636;11.756;2023-06-10T05:01:15;21.70;85.70
73137;DHT22;67767;45.636;11.756;2023-06-10T05:03:41;21.70;85.60
73137;DHT22;67767;45.636;11.756;2023-06-10T05:06:07;21.70;85.50
73137;DHT22;67767;45.636;11.756;2023-06-10T05:08:33;21.60;85.70
73137;DHT22;67767;45.636;11.756;2023-06-10T05:10:59;21.60;85.30
73137;DHT22;67767;45.636;11.756;2023-06-10T05:13:24;21.80;85.10
73137;DHT22;67767;45.636;11.756;2023-06-10T05:15:50;21.80;84.70
73137;DHT22;67767;45.636;11.756;2023-06-10T05:18:16;22.00;84.40
73137;DHT22;67767;45.636;11.756;2023-06-10T05:20:42;22.10;84.20
73137;DHT22;67767;45.636;11.756;2023-06-10T05:23:07;22.10;83.90
73137;DHT22;67767;45.636;11.756;2023-06-10T05:25:33;22.30;83.50
73137;DHT22;67767;45.636;11.756;2023-06-10T05:27:59;22.50;82.90
73137;DHT22;67767;45.636;11.756;2023-06-10T05:30:25;22.70;82.80
73137;DHT22;67767;45.636;11.756;2023-06-10T05:32:51;22.70;81.80
73137;DHT22;67767;45.636;11.756;2023-06-10T05:35:18;22.90;80.80
73137;DHT22;67767;45.636;11.756;2023-06-10T05:37:44;23.00;80.50
73137;DHT22;67767;45.636;11.756;2023-06-10T05:40:10;23.10;80.20
73137;DHT22;67767;45.636;11.756;2023-06-10T05:42:36;23.30;79.10
73137;DHT22;67767;45.636;11.756;2023-06-10T05:45:02;23.40;79.10
73137;DHT22;67767;45.636;11.756;2023-06-10T05:47:28;23.30;78.70
73137;DHT22;67767;45.636;11.756;2023-06-10T05:49:54;23.60;78.80
73137;DHT22;67767;45.636;11.756;2023-06-10T05:52:20;23.70;78.20
73137;DHT22;67767;45.636;11.756;2023-06-10T05:54:45;23.70;77.80
73137;DHT22;67767;45.636;11.756;2023-06-10T05:57:11;23.70;77.40
73137;DHT22;67767;45.636;11.756;2023-06-10T05:59:37;23.70;77.40
73137;DHT22;67767;45.636;11.756;2023-06-10T06:02:03;23.90;76.90
73137;DHT22;67767;45.636;11.756;2023-06-10T06:04:28;23.80;76.20
73137;DHT22;67767;45.636;11.756;2023-06-10T06:06:54;23.90;75.50
73137;DHT22;67767;45.636;11.756;2023-06-10T06:09:20;23.80;76.00
73137;DHT22;67767;45.636;11.756;2023-06-10T06:11:45;23.80;76.40
73137;DHT22;67767;45.636;11.756;2023-06-10T06:14:11;24.00;75.80
73137;DHT22;67767;45.636;11.756;2023-06-10T06:16:37;24.20;76.10
73137;DHT22;67767;45.636;11.756;2023-06-10T06:19:03;24.30;76.20
73137;DHT22;67767;45.636;11.756;2023-06-10T06:21:29;24.40;75.90
73137;DHT22;67767;45.636;11.756;2023-06-10T06:23:55;24.50;76.00
73137;DHT22;67767;45.636;11.756;2023-06-10T06:26:20;24.60;75.30
73137;DHT22;67767;45.636;11.756;2023-06-10T06:28:46;24.70;74.20
73137;DHT22;67767;45.636;11.756;2023-06-10T06:31:12;24.80;74.30
73137;DHT22;67767;45.636;11.756;2023-06-10T06:33:37;25.10;73.90
73137;DHT22;67767;45.636;11.756;2023-06-10T06:36:03;25.30;73.10
73137;DHT22;67767;45.636;11.756;2023-06-10T06:38:29;25.30;72.90
73137;DHT22;67767;45.636;11.756;2023-06-10T06:40:55;25.50;72.30
73137;DHT22;67767;45.636;11.756;2023-06-10T06:43:20;25.50;71.30
73137;DHT22;67767;45.636;11.756;2023-06-10T06:45:46;25.50;72.20
73137;DHT22;67767;45.636;11.756;2023-06-10T06:48:12;25.20;71.40
73137;DHT22;67767;45.636;11.756;2023-06-10T06:50:37;25.30;72.40
73137;DHT22;67767;45.636;11.756;2023-06-10T06:53:06;25.50;71.80
73137;DHT22;67767;45.636;11.756;2023-06-10T06:55:32;25.50;72.00
73137;DHT22;67767;45.636;11.756;2023-06-10T06:57:57;25.60;72.50
73137;DHT22;67767;45.636;11.756;2023-06-10T07:00:24;25.60;71.90
73137;DHT22;67767;45.636;11.756;2023-06-10T07:02:49;25.70;71.90
73137;DHT22;67767;45.636;11.756;2023-06-10T07:05:15;25.70;71.70
73137;DHT22;67767;45.636;11.756;2023-06-10T07:07:41;25.80;71.40
73137;DHT22;67767;45.636;11.756;2023-06-10T07:10:07;26.10;71.60
73137;DHT22;67767;45.636;11.756;2023-06-10T07:12:32;26.20;71.20
73137;DHT22;67767;45.636;11.756;2023-06-10T07:14:58;26.10;71.10
73137;DHT22;67767;45.636;11.756;2023-06-10T07:17:24;26.20;70.80
73137;DHT22;67767;45.636;11.756;2023-06-10T07:19:49;26.10;69.70
73137;DHT22;67767;45.636;11.756;2023-06-10T07:22:16;26.00;71.00
73137;DHT22;67767;45.636;11.756;2023-06-10T07:24:42;26.00;71.10
73137;DHT22;67767;45.636;11.756;2023-06-10T07:27:08;26.00;70.10
73137;DHT22;67767;45.636;11.756;2023-06-10T07:29:35;26.10;69.60
73137;DHT22;67767;45.636;11.756;2023-06-10T07:32:03;26.20;68.80
73137;DHT22;67767;45.636;11.756;2023-06-10T07:34:28;25.90;70.50
73137;DHT22;67767;45.636;11.756;2023-06-10T07:36:54;26.10;70.10
73137;DHT22;67767;45.636;11.756;2023-06-10T07:39:19;26.80;68.20
73137;DHT22;67767;45.636;11.756;2023-06-10T07:41:45;27.30;66.20
73137;DHT22;67767;45.636;11.756;2023-06-10T07:44:11;27.10;66.50
73137;DHT22;67767;45.636;11.756;2023-06-10T07:46:36;27.10;66.50
73137;DHT22;67767;45.636;11.756;2023-06-10T07:49:02;27.10;65.50
73137;DHT22;67767;45.636;11.756;2023-06-10T07:51:28;27.30;64.30
73137;DHT22;67767;45.636;11.756;2023-06-10T07:53:53;27.20;64.60
73137;DHT22;67767;45.636;11.756;2023-06-10T07:56:19;27.00;65.60
73137;DHT22;67767;45.636;11.756;2023-06-10T07:58:46;27.00;66.00
73137;DHT22;67767;45.636;11.756;2023-06-10T08:01:13;26.30;67.00
73137;DHT22;67767;45.636;11.756;2023-06-10T08:03:39;26.70;64.40
73137;DHT22;67767;45.636;11.756;2023-06-10T08:06:05;26.70;63.20
73137;DHT22;67767;45.636;11.756;2023-06-10T08:08:31;26.80;65.20
73137;DHT22;67767;45.636;11.756;2023-06-10T08:10:56;26.80;65.40
73137;DHT22;67767;45.636;11.756;2023-06-10T08:13:22;26.30;70.90
73137;DHT22;67767;45.636;11.756;2023-06-10T08:15:48;26.20;71.50
73137;DHT22;67767;45.636;11.756;2023-06-10T08:18:15;26.20;71.50
73137;DHT22;67767;45.636;11.756;2023-06-10T08:20:41;26.60;68.90
73137;DHT22;67767;45.636;11.756;2023-06-10T08:23:07;27.00;64.60
73137;DHT22;67767;45.636;11.756;2023-06-10T08:25:33;27.30;64.90
73137;DHT22;67767;45.636;11.756;2023-06-10T08:27:58;27.60;64.40
73137;DHT22;67767;45.636;11.756;2023-06-10T08:30:24;27.70;64.10
73137;DHT22;67767;45.636;11.756;2023-06-10T08:32:49;27.60;63.70
73137;DHT22;67767;45.636;11.756;2023-06-10T08:35:17;27.30;64.70
73137;DHT22;67767;45.636;11.756;2023-06-10T08:37:42;27.10;64.70
73137;DHT22;67767;45.636;11.756;2023-06-10T08:40:08;27.50;64.00
73137;DHT22;67767;45.636;11.756;2023-06-10T08:42:45;27.30;64.00
73137;DHT22;67767;45.636;11.756;2023-06-10T08:45:16;27.60;65.20
73137;DHT22;67767;45.636;11.756;2023-06-10T08:47:45;27.50;67.70
73137;DHT22;67767;45.636;11.756;2023-06-10T08:50:16;27.90;67.50
73137;DHT22;67767;45.636;11.756;2023-06-10T08:52:43;27.90;67.50
73137;DHT22;67767;45.636;11.756;2023-06-10T08:55:21;27.80;67.60
73137;DHT22;67767;45.636;11.756;2023-06-10T08:57:51;27.80;66.80
73137;DHT22;67767;45.636;11.756;2023-06-10T09:00:18;28.00;66.50
73137;DHT22;67767;45.636;11.756;2023-06-10T09:02:44;28.10;66.30
73137;DHT22;67767;45.636;11.756;2023-06-10T09:05:10;28.10;66.30
73137;DHT22;67767;45.636;11.756;2023-06-10T09:07:36;28.00;66.10
73137;DHT22;67767;45.636;11.756;2023-06-10T09:10:03;28.00;65.60
73137;DHT22;67767;45.636;11.756;2023-06-10T09:12:32;27.60;66.20
73137;DHT22;67767;45.636;11.756;2023-06-10T09:14:58;27.70;67.70
73137;DHT22;67767;45.636;11.756;2023-06-10T09:17:24;27.80;66.70
73137;DHT22;67767;45.636;11.756;2023-06-10T09:19:50;27.90;65.20
73137;DHT22;67767;45.636;11.756;2023-06-10T09:22:19;27.80;65.60
73137;DHT22;67767;45.636;11.756;2023-06-10T09:24:46;28.00;63.10
73137;DHT22;67767;45.636;11.756;2023-06-10T09:27:12;27.90;62.80
73137;DHT22;67767;45.636;11.756;2023-06-10T09:29:55;28.20;63.10
73137;DHT22;67767;45.636;11.756;2023-06-10T09:32:23;28.70;62.70
73137;DHT22;67767;45.636;11.756;2023-06-10T09:34:49;28.70;60.30
73137;DHT22;67767;45.636;11.756;2023-06-10T09:37:23;29.10;58.50
73137;DHT22;67767;45.636;11.756;2023-06-10T09:40:05;29.30;58.20
73137;DHT22;67767;45.636;11.756;2023-06-10T09:42:37;28.60;59.40
73137;DHT22;67767;45.636;11.756;2023-06-10T09:45:04;29.00;58.40
73137;DHT22;67767;45.636;11.756;2023-06-10T09:47:31;29.80;58.30
73137;DHT22;67767;45.636;11.756;2023-06-10T09:49:56;30.10;57.10
73137;DHT22;67767;45.636;11.756;2023-06-10T09:52:23;29.30;56.50
73137;DHT22;67767;45.636;11.756;2023-06-10T09:54:53;29.40;57.10
73137;DHT22;67767;45.636;11.756;2023-06-10T09:57:21;29.70;57.50
73137;DHT22;67767;45.636;11.756;2023-06-10T09:59:47;29.70;58.90
73137;DHT22;67767;45.636;11.756;2023-06-10T10:02:16;29.40;58.90
73137;DHT22;67767;45.636;11.756;2023-06-10T10:04:45;29.00;62.10
73137;DHT22;67767;45.636;11.756;2023-06-10T10:07:11;28.40;63.90
73137;DHT22;67767;45.636;11.756;2023-06-10T10:09:38;28.40;63.40
73137;DHT22;67767;45.636;11.756;2023-06-10T10:14:33;27.70;67.80
73137;DHT22;67767;45.636;11.756;2023-06-10T10:17:00;27.60;68.50
73137;DHT22;67767;45.636;11.756;2023-06-10T10:19:31;27.50;68.10
73137;DHT22;67767;45.636;11.756;2023-06-10T10:22:29;27.60;67.80
73137;DHT22;67767;45.636;11.756;2023-06-10T10:24:57;28.30;66.60
73137;DHT22;67767;45.636;11.756;2023-06-10T10:27:27;27.60;69.30
73137;DHT22;67767;45.636;11.756;2023-06-10T10:29:55;27.80;68.10
73137;DHT22;67767;45.636;11.756;2023-06-10T10:32:32;28.00;68.20
73137;DHT22;67767;45.636;11.756;2023-06-10T10:35:07;28.50;66.00
73137;DHT22;67767;45.636;11.756;2023-06-10T10:37:33;28.10;66.50
73137;DHT22;67767;45.636;11.756;2023-06-10T10:40:01;28.20;66.30
73137;DHT22;67767;45.636;11.756;2023-06-10T10:42:29;28.70;66.10
73137;DHT22;67767;45.636;11.756;2023-06-10T10:44:55;28.50;65.80
73137;DHT22;67767;45.636;11.756;2023-06-10T10:47:22;28.40;66.60
73137;DHT22;67767;45.636;11.756;2023-06-10T10:49:52;29.10;62.80
73137;DHT22;67767;45.636;11.756;2023-06-10T10:52:18;28.50;65.20
73137;DHT22;67767;45.636;11.756;2023-06-10T10:54:45;28.50;65.60
73137;DHT22;67767;45.636;11.756;2023-06-10T10:57:22;28.30;65.50
73137;DHT22;67767;45.636;11.756;2023-06-10T11:02:18;29.30;63.10
73137;DHT22;67767;45.636;11.756;2023-06-10T11:04:48;29.60;61.80
73137;DHT22;67767;45.636;11.756;2023-06-10T11:07:14;29.50;60.40
73137;DHT22;67767;45.636;11.756;2023-06-10T11:10:01;30.10;60.80
73137;DHT22;67767;45.636;11.756;2023-06-10T11:15:13;28.50;63.80
73137;DHT22;67767;45.636;11.756;2023-06-10T11:21:02;28.00;64.40
73137;DHT22;67767;45.636;11.756;2023-06-10T11:31:20;28.20;63.60
73137;DHT22;67767;45.636;11.756;2023-06-10T11:33:47;27.80;65.70
73137;DHT22;67767;45.636;11.756;2023-06-10T11:36:14;27.80;65.40
73137;DHT22;67767;45.636;11.756;2023-06-10T11:38:40;28.00;64.90
73137;DHT22;67767;45.636;11.756;2023-06-10T11:41:07;28.00;64.90
73137;DHT22;67767;45.636;11.756;2023-06-10T11:43:33;27.70;66.00
73137;DHT22;67767;45.636;11.756;2023-06-10T11:45:59;27.90;65.70
73137;DHT22;67767;45.636;11.756;2023-06-10T11:48:25;27.60;66.10
73137;DHT22;67767;45.636;11.756;2023-06-10T11:50:53;28.00;65.00
73137;DHT22;67767;45.636;11.756;2023-06-10T11:53:19;27.50;65.50
73137;DHT22;67767;45.636;11.756;2023-06-10T11:55:46;27.70;65.50
73137;DHT22;67767;45.636;11.756;2023-06-10T11:58:17;28.20;65.20
73137;DHT22;67767;45.636;11.756;2023-06-10T12:00:53;28.20;65.00
73137;DHT22;67767;45.636;11.756;2023-06-10T12:03:19;28.40;63.50
73137;DHT22;67767;45.636;11.756;2023-06-10T12:06:05;27.80;64.20
73137;DHT22;67767;45.636;11.756;2023-06-10T12:08:32;28.30;64.10
73137;DHT22;67767;45.636;11.756;2023-06-10T12:10:58;28.30;64.30
73137;DHT22;67767;45.636;11.756;2023-06-10T12:13:26;29.00;63.70
73137;DHT22;67767;45.636;11.756;2023-06-10T12:15:52;28.20;65.20
73137;DHT22;67767;45.636;11.756;2023-06-10T12:18:20;28.50;65.50
73137;DHT22;67767;45.636;11.756;2023-06-10T12:20:46;27.80;66.90
73137;DHT22;67767;45.636;11.756;2023-06-10T12:23:12;28.20;64.90
73137;DHT22;67767;45.636;11.756;2023-06-10T12:25:38;28.60;64.00
73137;DHT22;67767;45.636;11.756;2023-06-10T12:28:05;29.00;62.70
73137;DHT22;67767;45.636;11.756;2023-06-10T12:30:32;28.50;63.10
73137;DHT22;67767;45.636;11.756;2023-06-10T12:32:58;28.10;63.40
73137;DHT22;67767;45.636;11.756;2023-06-10T12:35:27;28.50;63.30
73137;DHT22;67767;45.636;11.756;2023-06-10T12:38:03;28.60;61.10
73137;DHT22;67767;45.636;11.756;2023-06-10T12:40:34;28.30;62.00
73137;DHT22;67767;45.636;11.756;2023-06-10T12:43:01;28.50;61.60
73137;DHT22;67767;45.636;11.756;2023-06-10T12:50:31;28.50;62.30
73137;DHT22;67767;45.636;11.756;2023-06-10T12:52:57;28.90;61.70
73137;DHT22;67767;45.636;11.756;2023-06-10T12:55:22;28.40;62.80
73137;DHT22;67767;45.636;11.756;2023-06-10T12:57:50;29.10;60.90
73137;DHT22;67767;45.636;11.756;2023-06-10T13:00:17;29.30;59.20
73137;DHT22;67767;45.636;11.756;2023-06-10T13:02:42;29.70;58.40
73137;DHT22;67767;45.636;11.756;2023-06-10T13:05:08;28.90;61.60
73137;DHT22;67767;45.636;11.756;2023-06-10T13:07:34;29.50;58.60
73137;DHT22;67767;45.636;11.756;2023-06-10T13:09:59;29.90;58.10
73137;DHT22;67767;45.636;11.756;2023-06-10T13:12:27;30.40;55.80
73137;DHT22;67767;45.636;11.756;2023-06-10T13:14:54;30.70;55.50
73137;DHT22;67767;45.636;11.756;2023-06-10T13:17:21;31.60;52.70
73137;DHT22;67767;45.636;11.756;2023-06-10T13:19:46;30.40;53.30
73137;DHT22;67767;45.636;11.756;2023-06-10T13:22:14;30.20;54.60
73137;DHT22;67767;45.636;11.756;2023-06-10T13:24:40;30.20;53.80
73137;DHT22;67767;45.636;11.756;2023-06-10T13:27:06;29.40;55.40
73137;DHT22;67767;45.636;11.756;2023-06-10T13:29:32;29.10;56.10
73137;DHT22;67767;45.636;11.756;2023-06-10T13:31:58;29.30;55.90
73137;DHT22;67767;45.636;11.756;2023-06-10T13:34:24;30.20;53.90
73137;DHT22;67767;45.636;11.756;2023-06-10T13:36:49;30.40;54.10
73137;DHT22;67767;45.636;11.756;2023-06-10T13:39:15;30.90;51.50
73137;DHT22;67767;45.636;11.756;2023-06-10T13:41:41;30.70;52.40
73137;DHT22;67767;45.636;11.756;2023-06-10T13:44:07;30.40;53.00
73137;DHT22;67767;45.636;11.756;2023-06-10T13:46:33;30.70;51.90
73137;DHT22;67767;45.636;11.756;2023-06-10T13:48:58;30.50;52.60
73137;DHT22;67767;45.636;11.756;2023-06-10T13:51:24;31.00;51.00
73137;DHT22;67767;45.636;11.756;2023-06-10T13:53:50;31.10;51.20
73137;DHT22;67767;45.636;11.756;2023-06-10T13:56:18;31.10;51.00
73137;DHT22;67767;45.636;11.756;2023-06-10T13:58:43;31.20;51.00
73137;DHT22;67767;45.636;11.756;2023-06-10T14:01:09;30.50;52.20
73137;DHT22;67767;45.636;11.756;2023-06-10T14:03:35;31.40;51.10
73137;DHT22;67767;45.636;11.756;2023-06-10T14:06:01;32.10;48.80
73137;DHT22;67767;45.636;11.756;2023-06-10T14:08:27;31.90;49.20
73137;DHT22;67767;45.636;11.756;2023-06-10T14:10:52;31.40;51.10
73137;DHT22;67767;45.636;11.756;2023-06-10T14:13:18;32.10;49.00
73137;DHT22;67767;45.636;11.756;2023-06-10T14:15:44;31.90;48.80
73137;DHT22;67767;45.636;11.756;2023-06-10T14:18:11;31.80;49.40
73137;DHT22;67767;45.636;11.756;2023-06-10T14:20:36;31.60;50.10
73137;DHT22;67767;45.636;11.756;2023-06-10T14:23:02;32.30;48.40
73137;DHT22;67767;45.636;11.756;2023-06-10T14:25:28;32.90;46.30
73137;DHT22;67767;45.636;11.756;2023-06-10T14:27:53;32.20;48.90
73137;DHT22;67767;45.636;11.756;2023-06-10T14:30:19;32.30;47.50
73137;DHT22;67767;45.636;11.756;2023-06-10T14:32:45;31.60;49.20
73137;DHT22;67767;45.636;11.756;2023-06-10T14:35:11;32.00;47.80
73137;DHT22;67767;45.636;11.756;2023-06-10T14:37:36;31.40;50.50
73137;DHT22;67767;45.636;11.756;2023-06-10T14:40:04;31.30;50.70
73137;DHT22;67767;45.636;11.756;2023-06-10T14:42:30;31.20;50.20
73137;DHT22;67767;45.636;11.756;2023-06-10T14:44:57;31.40;50.30
73137;DHT22;67767;45.636;11.756;2023-06-10T14:47:23;31.30;49.70
73137;DHT22;67767;45.636;11.756;2023-06-10T14:49:49;31.60;49.20
73137;DHT22;67767;45.636;11.756;2023-06-10T14:52:15;31.80;48.70
73137;DHT22;67767;45.636;11.756;2023-06-10T14:54:41;31.40;49.90
73137;DHT22;67767;45.636;11.756;2023-06-10T14:57:07;31.50;50.00
73137;DHT22;67767;45.636;11.756;2023-06-10T14:59:33;32.10;48.50
73137;DHT22;67767;45.636;11.756;2023-06-10T15:02:00;32.50;47.90
73137;DHT22;67767;45.636;11.756;2023-06-10T15:04:29;33.10;45.90
73137;DHT22;67767;45.636;11.756;2023-06-10T15:06:55;32.80;46.60
73137;DHT22;67767;45.636;11.756;2023-06-10T15:09:20;32.80;46.60
73137;DHT22;67767;45.636;11.756;2023-06-10T15:11:46;32.30;47.70
73137;DHT22;67767;45.636;11.756;2023-06-10T15:14:12;32.00;48.60
73137;DHT22;67767;45.636;11.756;2023-06-10T15:16:37;31.80;48.70
73137;DHT22;67767;45.636;11.756;2023-06-10T15:19:03;32.00;48.30
73137;DHT22;67767;45.636;11.756;2023-06-10T15:21:29;31.70;50.70
73137;DHT22;67767;45.636;11.756;2023-06-10T15:23:54;31.20;51.40
73137;DHT22;67767;45.636;11.756;2023-06-10T15:26:20;31.10;51.40
73137;DHT22;67767;45.636;11.756;2023-06-10T15:28:46;30.90;52.30
73137;DHT22;67767;45.636;11.756;2023-06-10T15:31:12;31.10;51.30
73137;DHT22;67767;45.636;11.756;2023-06-10T15:33:38;31.20;50.50
73137;DHT22;67767;45.636;11.756;2023-06-10T15:36:04;31.00;51.90
73137;DHT22;67767;45.636;11.756;2023-06-10T15:38:31;30.80;51.60
73137;DHT22;67767;45.636;11.756;2023-06-10T15:40:57;31.50;50.50
73137;DHT22;67767;45.636;11.756;2023-06-10T15:43:22;31.90;48.10